Time;durP1;ratioP1;P1;durP2;ratioP2;P2;SDS_P1;SDS_P2;PMS_P1;PMS_P2;Temp;Humidity;BMP_temperature;BMP_pressure;BME280_temperature;BME280_humidity;BME280_pressure;Samples;Min_cycle;Max_cycle;Signal;HPM_P1;HPM_P2
2023/02/01 00:00:09;;;;;;;;;16.67;16.33;;;;;11.29;100.00;102262.16;5102399;27;45255;-80
2023/02/01 00:02:36;;;;;;;;;18.33;16.33;;;;;11.26;100.00;102272.25;5102563;27;45431;-80
2023/02/01 00:05:01;;;;;;;;;14.33;14.33;;;;;11.27;100.00;102271.25;5102502;27;45457;-80
2023/02/01 00:07:26;;;;;;;;;19.00;17.33;;;;;11.21;100.00;102260.19;5102013;27;47503;-80
2023/02/01 00:09:51;;;;;;;;;19.00;18.00;;;;;11.24;100.00;102269.72;5102814;27;45246;-79
2023/02/01 00:12:17;;;;;;;;;19.33;19.33;;;;;11.28;100.00;102275.63;5097808;27;45268;-80
2023/02/01 00:14:42;;;;;;;;;20.33;17.67;;;;;11.27;100.00;102263.25;5102218;27;45492;-79
2023/02/01 00:17:08;;;;;;;;;19.67;18.33;;;;;11.52;100.00;102266.34;5102109;27;46282;-80
2023/02/01 00:19:34;;;;;;;;;22.67;20.67;;;;;11.68;100.00;102263.06;5097488;27;45398;-80
2023/02/01 00:22:00;;;;;;;;;17.00;16.33;;;;;11.71;100.00;102260.94;5093847;27;45515;-80
2023/02/01 00:24:25;;;;;;;;;16.00;16.00;;;;;11.38;100.00;102264.94;5100861;27;45504;-79
2023/02/01 00:26:50;;;;;;;;;20.67;17.00;;;;;11.30;100.00;102252.34;5102082;27;45295;-79
2023/02/01 00:29:18;;;;;;;;;19.67;18.33;;;;;11.63;100.00;102247.53;5102045;27;45347;-81
2023/02/01 00:31:45;;;;;;;;;24.33;22.33;;;;;11.65;100.00;102248.22;5102124;27;45382;-79
2023/02/01 00:34:13;;;;;;;;;23.00;20.67;;;;;11.69;100.00;102241.63;5101689;27;45605;-80
2023/02/01 00:36:38;;;;;;;;;19.67;16.67;;;;;11.67;100.00;102238.25;5102028;27;46439;-80
2023/02/01 00:39:04;;;;;;;;;21.00;19.33;;;;;11.70;100.00;102245.13;5102226;27;45362;-80
2023/02/01 00:41:29;;;;;;;;;18.67;17.67;;;;;11.65;100.00;102234.91;5101912;27;45423;-79
2023/02/01 00:43:55;;;;;;;;;18.00;17.00;;;;;11.58;100.00;102229.31;5086820;27;46414;-79
2023/02/01 00:46:21;;;;;;;;;20.33;19.00;;;;;11.56;100.00;102233.09;5100442;27;48010;-79
2023/02/01 00:48:47;;;;;;;;;25.33;21.00;;;;;11.18;100.00;102236.53;5101939;27;45511;-80
2023/02/01 00:51:15;;;;;;;;;18.00;17.00;;;;;11.05;100.00;102220.84;5102013;27;45357;-79
2023/02/01 00:53:41;;;;;;;;;21.33;18.33;;;;;11.00;100.00;102231.06;5102002;27;45339;-80
2023/02/01 00:56:07;;;;;;;;;19.33;17.67;;;;;10.94;100.00;102228.97;5101573;27;45329;-79
2023/02/01 00:58:33;;;;;;;;;18.00;18.00;;;;;10.90;100.00;102232.91;5100364;27;45303;-79
2023/02/01 01:01:11;;;;;;;;;18.67;18.67;;;;;10.91;100.00;102251.38;5101688;27;45349;-80
2023/02/01 01:03:40;;;;;;;;;19.33;16.67;;;;;10.88;100.00;102258.78;5101685;27;45397;-80
2023/02/01 01:06:12;;;;;;;;;19.00;16.67;;;;;10.87;100.00;102260.63;5102236;27;46930;-80
2023/02/01 01:08:39;;;;;;;;;17.00;15.33;;;;;10.83;100.00;102252.06;5101484;27;45469;-80
2023/02/01 01:11:10;;;;;;;;;18.33;17.67;;;;;10.83;100.00;102257.38;5101410;27;45294;-80
2023/02/01 01:13:36;;;;;;;;;17.33;16.00;;;;;10.80;100.00;102259.47;5099892;27;46003;-79
2023/02/01 01:16:03;;;;;;;;;20.33;19.00;;;;;10.74;100.00;102260.88;5100837;27;46292;-80
2023/02/01 01:18:30;;;;;;;;;16.33;16.33;;;;;10.73;100.00;102267.19;5101410;27;45297;-80
2023/02/01 01:20:56;;;;;;;;;18.00;18.00;;;;;10.74;100.00;102258.22;5101141;27;45317;-80
2023/02/01 01:23:22;;;;;;;;;16.33;14.33;;;;;10.73;100.00;102257.38;5101169;27;45365;-80
2023/02/01 01:25:47;;;;;;;;;19.00;17.33;;;;;10.77;100.00;102273.06;5101010;27;46119;-80
2023/02/01 01:28:12;;;;;;;;;18.33;17.33;;;;;10.77;100.00;102273.06;5099915;27;45177;-80
2023/02/01 01:30:38;;;;;;;;;18.00;17.33;;;;;10.78;100.00;102269.44;5099937;27;45214;-80
2023/02/01 01:33:03;;;;;;;;;32.00;30.67;;;;;10.83;100.00;102272.50;5100960;27;45444;-80
2023/02/01 01:35:30;;;;;;;;;18.00;17.00;;;;;10.84;100.00;102280.34;5100952;27;45946;-80
2023/02/01 01:37:56;;;;;;;;;15.00;15.00;;;;;10.90;100.00;102267.47;5101203;27;45349;-80
2023/02/01 01:40:21;;;;;;;;;14.33;14.00;;;;;10.88;100.00;102275.59;5101089;27;45333;-80
2023/02/01 01:42:48;;;;;;;;;14.33;14.33;;;;;10.88;100.00;102272.94;5100948;27;45419;-80
2023/02/01 01:45:21;;;;;;;;;19.67;17.00;;;;;10.97;100.00;102280.09;5099725;27;47284;-80
2023/02/01 01:47:51;;;;;;;;;14.33;13.67;;;;;11.02;100.00;102276.16;5100600;27;45320;-80
2023/02/01 01:50:22;;;;;;;;;13.67;12.33;;;;;11.04;100.00;102279.53;5100524;27;45214;-80
2023/02/01 01:52:50;;;;;;;;;12.67;12.67;;;;;11.04;100.00;102268.91;5100937;27;45504;-80
2023/02/01 01:55:18;;;;;;;;;11.67;10.67;;;;;11.05;100.00;102266.06;5100936;27;45739;-80
2023/02/01 01:57:50;;;;;;;;;13.67;11.33;;;;;11.42;100.00;102276.97;5099339;27;45307;-80
2023/02/01 02:00:19;;;;;;;;;9.67;8.67;;;;;11.50;100.00;102274.47;5099400;27;45426;-80
2023/02/01 02:02:47;;;;;;;;;11.00;9.33;;;;;11.51;100.00;102286.78;5100100;27;45483;-80
2023/02/01 02:05:15;;;;;;;;;11.00;8.00;;;;;11.62;100.00;102277.81;5100455;27;46246;-80
2023/02/01 02:07:45;;;;;;;;;13.67;11.67;;;;;11.64;100.00;102273.16;5101379;27;45294;-80
2023/02/01 02:10:13;;;;;;;;;7.33;7.00;;;;;11.29;100.00;102279.94;5099460;27;45345;-80
2023/02/01 02:12:42;;;;;;;;;8.00;6.67;;;;;11.29;100.00;102274.63;5100492;27;45334;-80
2023/02/01 02:15:10;;;;;;;;;8.00;6.67;;;;;11.33;100.00;102268.03;5100524;27;45344;-80
2023/02/01 02:17:44;;;;;;;;;7.33;7.00;;;;;11.35;100.00;102272.22;5099744;27;45416;-80
2023/02/01 02:20:35;;;;;;;;;7.00;7.00;;;;;11.38;100.00;102278.25;5098885;27;45386;-80
2023/02/01 02:23:22;;;;;;;;;7.00;5.00;;;;;11.36;100.00;102283.72;5095365;27;46231;-81
2023/02/01 02:26:09;;;;;;;;;8.33;7.33;;;;;11.36;100.00;102275.72;5097577;27;45366;-83
2023/02/01 02:28:58;;;;;;;;;6.67;6.67;;;;;11.34;100.00;102270.56;5095927;27;45368;-81
2023/02/01 02:31:43;;;;;;;;;7.33;7.33;;;;;11.42;100.00;102280.50;5100039;27;45306;-80
2023/02/01 02:34:28;;;;;;;;;8.00;8.00;;;;;11.39;100.00;102272.78;5099910;27;45462;-80
2023/02/01 02:37:02;;;;;;;;;6.00;6.00;;;;;11.43;100.00;102278.69;5100149;27;46217;-81
2023/02/01 02:39:31;;;;;;;;;7.67;5.00;;;;;11.46;100.00;102279.22;5095455;27;45884;-80
2023/02/01 02:48:23;;;;;;;;;7.00;6.00;;;;;11.43;100.00;102252.06;5099747;27;45401;-80
2023/02/01 03:05:11;;;;;;;;;5.67;5.00;;;;;11.43;100.00;102258.22;5099782;27;45499;-80
2023/02/01 03:08:00;;;;;;;;;7.00;7.00;;;;;11.48;100.00;102282.59;5100509;27;45452;-80
2023/02/01 03:10:44;;;;;;;;;9.67;7.33;;;;;11.47;100.00;102280.06;5094993;27;47457;-80
2023/02/01 03:13:35;;;;;;;;;8.67;7.00;;;;;11.47;100.00;102280.06;5086204;27;45274;-81
2023/02/01 03:16:27;;;;;;;;;8.67;6.00;;;;;11.44;100.00;102270.53;5099589;27;45330;-80
2023/02/01 03:19:07;;;;;;;;;9.00;6.00;;;;;11.42;100.00;102261.84;5099235;27;45495;-81
2023/02/01 03:22:11;;;;;;;;;9.33;7.33;;;;;11.47;100.00;102261.44;5099316;27;45404;-80
2023/02/01 03:24:44;;;;;;;;;7.00;7.00;;;;;11.48;100.00;102273.75;5056436;28;45818;-81
2023/02/01 03:27:42;;;;;;;;;8.00;6.00;;;;;11.45;100.00;102282.88;5087377;27;45512;-80
2023/02/01 03:30:17;;;;;;;;;11.67;8.00;;;;;11.48;100.00;102271.09;5075594;27;45408;-80
2023/02/01 03:33:01;;;;;;;;;5.33;5.33;;;;;11.44;100.00;102267.84;5099064;27;45410;-80
2023/02/01 03:35:29;;;;;;;;;10.33;8.00;;;;;11.49;100.00;102272.75;5097671;27;45387;-80
2023/02/01 03:38:03;;;;;;;;;6.00;5.33;;;;;11.54;100.00;102269.69;5099470;27;45503;-81
2023/02/01 03:40:32;;;;;;;;;6.33;6.33;;;;;11.59;100.00;102262.13;5099151;27;45293;-81
2023/02/01 03:43:01;;;;;;;;;7.00;5.00;;;;;11.54;100.00;102269.69;5098931;27;45332;-80
2023/02/01 03:45:46;;;;;;;;;4.00;4.00;;;;;11.67;100.00;102283.53;5094145;27;45417;-80
2023/02/01 03:48:13;;;;;;;;;6.67;5.00;;;;;11.81;100.00;102292.03;5091598;27;45232;-80
2023/02/01 03:50:46;;;;;;;;;4.00;4.00;;;;;11.79;100.00;102288.69;5097755;27;45913;-80
2023/02/01 03:53:17;;;;;;;;;5.00;4.00;;;;;11.55;100.00;102295.34;5098932;27;45350;-81
2023/02/01 03:55:43;;;;;;;;;7.33;4.00;;;;;11.49;100.00;102280.75;5099112;27;45283;-81
2023/02/01 03:58:20;;;;;;;;;5.00;5.00;;;;;11.45;100.00;102272.22;5099011;27;45475;-80
2023/02/01 04:00:57;;;;;;;;;3.67;3.33;;;;;11.53;100.00;102282.16;5099220;27;45420;-80
2023/02/01 04:03:23;;;;;;;;;5.67;4.67;;;;;11.51;100.00;102256.66;5084837;27;45963;-80
2023/02/01 04:05:50;;;;;;;;;6.00;5.00;;;;;11.52;100.00;102269.00;5098441;27;45325;-80
2023/02/01 04:08:15;;;;;;;;;5.00;4.00;;;;;11.48;100.00;102276.41;5088505;27;45275;-81
2023/02/01 04:10:40;;;;;;;;;5.00;5.00;;;;;11.53;100.00;102268.00;5102532;27;45240;-81
2023/02/01 04:13:06;;;;;;;;;3.33;3.33;;;;;11.47;100.00;102267.56;5102356;27;45454;-81
2023/02/01 04:15:32;;;;;;;;;6.00;5.00;;;;;11.44;100.00;102273.19;5102523;27;45336;-81
2023/02/01 04:17:57;;;;;;;;;6.33;3.00;;;;;11.45;100.00;102263.38;5102189;27;45357;-80
2023/02/01 04:20:22;;;;;;;;;8.67;5.67;;;;;11.48;100.00;102271.09;5100838;27;46109;-80
2023/02/01 04:22:48;;;;;;;;;6.00;4.00;;;;;11.43;100.00;102265.38;5097220;27;47519;-80
2023/02/01 04:25:13;;;;;;;;;6.00;5.33;;;;;11.34;100.00;102269.69;5080616;27;45702;-81
2023/02/01 04:27:38;;;;;;;;;9.33;6.33;;;;;11.30;100.00;102257.66;5101420;27;45959;-81
2023/02/01 04:30:04;;;;;;;;;8.33;5.00;;;;;11.30;100.00;102262.97;5102146;27;45485;-80
2023/02/01 04:32:30;;;;;;;;;5.00;5.00;;;;;11.27;100.00;102261.44;5100471;27;47894;-80
2023/02/01 04:34:55;;;;;;;;;7.00;5.00;;;;;11.30;100.00;102265.66;5102178;27;45385;-80
2023/02/01 04:37:21;;;;;;;;;4.00;4.00;;;;;11.31;100.00;102264.69;5102107;27;45337;-80
2023/02/01 04:39:46;;;;;;;;;6.33;5.67;;;;;11.32;100.00;102264.50;5102235;27;45312;-81
2023/02/01 04:42:12;;;;;;;;;7.00;5.00;;;;;11.34;100.00;102267.88;5095936;27;46206;-80
2023/02/01 04:44:39;;;;;;;;;5.33;5.00;;;;;11.35;100.00;102260.75;5110383;27;45349;-80
2023/02/01 04:47:05;;;;;;;;;7.00;6.00;;;;;11.36;100.00;102263.28;5101753;27;45305;-81
2023/02/01 04:49:30;;;;;;;;;5.00;5.00;;;;;11.32;100.00;102269.84;5102031;27;45322;-81
2023/02/01 04:51:56;;;;;;;;;6.00;5.00;;;;;11.21;100.00;102270.84;5101579;27;45533;-80
2023/02/01 04:54:21;;;;;;;;;7.33;7.33;;;;;11.18;100.00;102279.13;5101924;27;45420;-80
2023/02/01 04:56:46;;;;;;;;;6.33;4.67;;;;;11.18;100.00;102275.59;5101737;27;45424;-81
2023/02/01 04:59:12;;;;;;;;;4.50;4.50;;;;;11.10;100.00;102276.28;5101769;27;45254;-80
2023/02/01 05:01:37;;;;;;;;;8.67;6.33;;;;;11.07;100.00;102282.75;5101619;27;45348;-81
2023/02/01 05:04:03;;;;;;;;;5.33;5.00;;;;;10.97;100.00;102279.25;5100029;27;45373;-81
2023/02/01 05:06:28;;;;;;;;;5.67;4.67;;;;;10.97;100.00;102297.88;5102910;27;45541;-80
2023/02/01 05:08:54;;;;;;;;;7.00;6.00;;;;;11.15;100.00;102290.03;5101596;27;45238;-80
2023/02/01 05:14:03;;;;;;;;;3.33;3.33;;;;;11.15;100.00;102292.69;5096196;27;45215;-80
2023/02/01 05:16:28;;;;;;;;;4.33;4.33;;;;;11.13;99.96;102296.47;5101599;27;45503;-80
2023/02/01 05:18:54;;;;;;;;;7.33;5.67;;;;;11.13;99.64;102299.97;5098945;27;46329;-80
2023/02/01 05:21:20;;;;;;;;;4.67;4.00;;;;;11.09;99.52;102294.09;5101484;27;45461;-80
2023/02/01 05:26:30;;;;;;;;;5.33;4.33;;;;;11.02;99.79;102292.97;5101380;27;45487;-80
2023/02/01 05:28:55;;;;;;;;;4.50;4.50;;;;;11.00;100.00;102292.25;5100876;27;45583;-81
2023/02/01 05:31:21;;;;;;;;;4.33;4.33;;;;;10.94;99.91;102299.00;5100984;27;46426;-80
2023/02/01 05:33:46;;;;;;;;;5.33;5.33;;;;;10.96;100.00;102309.50;5100882;27;45355;-80
2023/02/01 05:36:12;;;;;;;;;5.33;3.00;;;;;10.67;100.00;102305.81;5101501;27;45300;-80
2023/02/01 05:38:37;;;;;;;;;8.33;7.33;;;;;10.63;100.00;102303.53;5100943;27;45463;-80
2023/02/01 05:41:03;;;;;;;;;5.33;5.00;;;;;10.67;100.00;102328.88;5101147;27;46292;-80
2023/02/01 05:43:28;;;;;;;;;6.33;5.00;;;;;10.50;100.00;102295.81;5096036;27;46397;-80
2023/02/01 05:45:53;;;;;;;;;7.00;6.33;;;;;10.71;100.00;102322.31;5091436;27;45349;-81
2023/02/01 05:48:19;;;;;;;;;5.00;5.00;;;;;10.76;100.00;102329.88;5100549;27;45444;-80
2023/02/01 05:50:44;;;;;;;;;5.67;5.00;;;;;10.80;100.00;102324.16;5100050;27;45265;-81
2023/02/01 05:53:09;;;;;;;;;7.00;5.00;;;;;10.79;100.00;102330.47;5100905;27;45258;-80
2023/02/01 05:55:36;;;;;;;;;7.67;7.33;;;;;10.89;100.00;102330.47;5100919;27;45310;-80
2023/02/01 05:58:02;;;;;;;;;6.00;4.33;;;;;10.82;100.00;102324.03;5100645;27;45298;-80
2023/02/01 06:00:27;;;;;;;;;8.00;8.00;;;;;10.84;100.00;102338.03;5100563;27;46257;-80
2023/02/01 06:02:52;;;;;;;;;8.00;6.00;;;;;10.89;100.00;102317.16;5086936;27;45351;-82
2023/02/01 06:05:18;;;;;;;;;6.00;5.00;;;;;10.85;100.00;102316.63;5100836;27;45284;-80
2023/02/01 06:07:43;;;;;;;;;7.00;6.67;;;;;10.89;100.00;102319.81;5100544;27;45400;-80
2023/02/01 06:10:10;;;;;;;;;5.67;4.67;;;;;10.92;100.00;102324.06;5099354;27;46950;-80
2023/02/01 06:12:35;;;;;;;;;6.33;5.33;;;;;10.91;100.00;102317.88;5100285;27;45337;-80
2023/02/01 06:15:01;;;;;;;;;4.00;4.00;;;;;10.90;100.00;102326.84;5097733;27;45343;-82
2023/02/01 06:17:26;;;;;;;;;7.00;5.00;;;;;11.11;100.00;102323.22;5091857;27;45373;-81
2023/02/01 06:19:51;;;;;;;;;7.33;5.33;;;;;10.93;100.00;102326.53;5091598;27;46349;-81
2023/02/01 06:22:17;;;;;;;;;6.33;4.00;;;;;10.98;100.00;102328.78;5096628;27;45566;-81
2023/02/01 06:24:43;;;;;;;;;5.00;4.00;;;;;10.92;100.00;102316.91;5089693;27;45337;-80
2023/02/01 06:27:09;;;;;;;;;6.33;5.00;;;;;11.01;100.00;102333.03;5097733;27;46135;-79
2023/02/01 06:29:34;;;;;;;;;3.00;3.00;;;;;10.98;100.00;102318.16;5099675;27;46534;-79
2023/02/01 06:32:00;;;;;;;;;4.00;2.67;;;;;10.95;100.00;102316.63;5099453;27;45253;-78
2023/02/01 06:34:25;;;;;;;;;8.00;6.67;;;;;10.96;100.00;102325.44;5100351;27;45566;-79
2023/02/01 06:36:51;;;;;;;;;4.33;3.00;;;;;11.06;100.00;102322.78;5097556;27;46160;-80
2023/02/01 06:39:16;;;;;;;;;8.00;6.33;;;;;11.01;100.00;102317.06;5100197;27;45329;-79
2023/02/01 06:41:45;;;;;;;;;8.67;6.00;;;;;10.97;100.00;102309.34;5098459;27;45547;-82
2023/02/01 06:44:11;;;;;;;;;8.33;7.00;;;;;10.96;100.00;102306.84;5095605;27;45385;-81
2023/02/01 06:46:36;;;;;;;;;7.00;5.00;;;;;10.85;100.00;102307.78;5095396;27;45290;-81
2023/02/01 06:49:01;;;;;;;;;7.33;7.00;;;;;10.86;100.00;102322.75;5099919;27;46011;-81
2023/02/01 06:51:28;;;;;;;;;10.33;6.00;;;;;10.85;100.00;102323.75;5099712;27;45314;-81
2023/02/01 06:53:54;;;;;;;;;6.00;5.33;;;;;10.76;100.00;102330.72;5100097;27;45388;-81
2023/02/01 06:56:20;;;;;;;;;7.00;6.00;;;;;10.78;100.00;102338.56;5099758;27;45289;-80
2023/02/01 06:58:45;;;;;;;;;4.00;4.00;;;;;10.77;100.00;102340.38;5098436;27;47273;-81
2023/02/01 07:01:11;;;;;;;;;8.00;6.00;;;;;10.73;100.00;102346.94;5099902;27;45271;-80
2023/02/01 07:03:37;;;;;;;;;7.33;6.00;;;;;10.69;100.00;102346.38;5099978;27;45500;-80
2023/02/01 07:06:04;;;;;;;;;6.33;5.33;;;;;10.65;100.00;102350.28;5100497;27;45374;-81
2023/02/01 07:08:32;;;;;;;;;5.67;4.67;;;;;10.91;100.00;102344.47;5099615;27;46007;-79
2023/02/01 07:11:02;;;;;;;;;10.00;7.33;;;;;10.65;100.00;102352.13;5097831;27;45327;-80
2023/02/01 07:13:27;;;;;;;;;7.00;4.33;;;;;10.56;100.00;102341.31;5089756;27;45503;-82
2023/02/01 07:15:53;;;;;;;;;5.00;5.00;;;;;10.63;100.00;102346.09;5096506;27;45447;-80
2023/02/01 07:18:18;;;;;;;;;7.00;7.00;;;;;10.68;100.00;102352.69;5099505;27;45316;-80
2023/02/01 07:20:49;;;;;;;;;4.67;4.67;;;;;10.70;100.00;102361.38;5099507;27;45223;-81
2023/02/01 07:23:15;;;;;;;;;9.67;7.33;;;;;10.68;100.00;102365.13;5099544;27;45350;-81
2023/02/01 07:25:40;;;;;;;;;7.00;6.00;;;;;10.67;100.00;102363.44;5098059;27;46091;-82
2023/02/01 07:28:05;;;;;;;;;13.00;8.67;;;;;10.62;100.00;102371.00;5097014;27;46036;-81
2023/02/01 07:30:31;;;;;;;;;8.00;8.00;;;;;10.59;100.00;102380.91;5098145;27;45366;-81
2023/02/01 07:33:00;;;;;;;;;10.33;7.33;;;;;10.59;100.00;102374.75;5099477;27;45479;-82
2023/02/01 07:35:26;;;;;;;;;7.00;7.00;;;;;10.56;100.00;102380.34;5099231;27;45389;-82
2023/02/01 07:37:51;;;;;;;;;7.33;7.33;;;;;10.53;100.00;102372.66;5099358;27;45323;-81
2023/02/01 07:40:18;;;;;;;;;6.00;5.00;;;;;10.47;100.00;102374.00;5099187;27;45291;-82
2023/02/01 07:42:43;;;;;;;;;5.33;4.67;;;;;10.45;100.00;102382.09;5101734;27;45301;-82
2023/02/01 07:45:09;;;;;;;;;7.00;6.00;;;;;10.40;100.00;102379.00;5102853;27;45305;-81
2023/02/01 07:47:34;;;;;;;;;4.67;4.67;;;;;10.40;100.00;102388.78;5102445;27;46806;-81
2023/02/01 07:49:59;;;;;;;;;8.67;8.00;;;;;10.36;100.00;102383.72;5102678;27;45246;-81
2023/02/01 07:52:28;;;;;;;;;6.33;5.33;;;;;10.36;100.00;102397.00;5098182;27;45450;-81
2023/02/01 07:54:53;;;;;;;;;9.00;7.00;;;;;10.29;100.00;102395.00;5099477;27;45349;-82
2023/02/01 07:57:19;;;;;;;;;6.00;4.00;;;;;10.57;100.00;102416.59;5102780;27;45458;-82
2023/02/01 08:02:28;;;;;;;;;6.00;6.00;;;;;10.31;100.00;102412.53;5102741;27;45438;-81
2023/02/01 08:04:54;;;;;;;;;12.00;8.33;;;;;10.65;100.00;102407.97;5097587;27;46222;-81
2023/02/01 08:07:19;;;;;;;;;8.67;8.67;;;;;10.73;100.00;102416.09;5096716;27;46083;-83
2023/02/01 08:09:44;;;;;;;;;6.33;6.33;;;;;10.55;100.00;102414.06;5101239;27;45415;-83
2023/02/01 08:12:09;;;;;;;;;10.00;8.00;;;;;10.71;100.00;102407.41;5102988;27;45356;-84
2023/02/01 08:14:35;;;;;;;;;9.67;4.67;;;;;10.65;100.00;102399.97;5098983;27;45681;-83
2023/02/01 08:17:00;;;;;;;;;9.67;8.67;;;;;10.55;100.00;102397.25;5103226;27;48191;-82
2023/02/01 08:19:25;;;;;;;;;7.00;5.00;;;;;10.85;100.00;102388.44;5109500;27;45059;-81
2023/02/01 08:21:51;;;;;;;;;8.33;7.00;;;;;10.71;100.00;102394.97;5103098;27;45374;-81
2023/02/01 08:24:16;;;;;;;;;9.67;8.33;;;;;10.72;100.00;102393.16;5102722;27;46619;-82
2023/02/01 08:26:41;;;;;;;;;9.67;7.67;;;;;10.80;100.00;102376.50;5104259;27;45463;-83
2023/02/01 08:29:11;;;;;;;;;9.33;7.33;;;;;10.94;100.00;102386.78;5102625;27;45521;-83
2023/02/01 08:31:40;;;;;;;;;8.00;7.67;;;;;10.85;100.00;102374.28;5105646;27;45365;-83
2023/02/01 08:34:05;;;;;;;;;6.33;6.33;;;;;10.85;100.00;102379.59;5105257;27;45522;-83
2023/02/01 08:36:31;;;;;;;;;9.00;8.33;;;;;10.81;100.00;102367.56;5106611;27;45328;-85
2023/02/01 08:38:57;;;;;;;;;5.67;5.33;;;;;10.86;100.00;102383.94;5104452;27;45222;-82
2023/02/01 08:41:26;;;;;;;;;14.00;9.00;;;;;10.93;100.00;102393.06;5101228;27;45476;-81
2023/02/01 08:43:53;;;;;;;;;10.33;7.00;;;;;10.96;100.00;102382.13;5102166;27;45303;-82
2023/02/01 08:46:19;;;;;;;;;6.33;5.67;;;;;11.02;100.00;102366.63;5103044;27;45455;-83
2023/02/01 08:48:46;;;;;;;;;9.67;8.00;;;;;11.05;100.00;102369.84;5105454;27;45309;-82
2023/02/01 08:51:13;;;;;;;;;6.33;6.33;;;;;11.10;100.00;102366.75;5101975;27;45376;-83
2023/02/01 08:53:41;;;;;;;;;8.67;6.00;;;;;11.17;100.00;102373.25;5106264;27;45367;-82
2023/02/01 08:56:07;;;;;;;;;9.00;8.00;;;;;11.23;100.00;102366.53;5104803;27;45340;-82
2023/02/01 08:58:33;;;;;;;;;15.67;10.00;;;;;11.28;100.00;102363.44;5102690;27;45334;-82
2023/02/01 09:01:04;;;;;;;;;9.00;6.33;;;;;11.38;100.00;102360.78;5099248;27;45633;-82
2023/02/01 09:03:29;;;;;;;;;9.00;8.00;;;;;11.47;100.00;102366.09;5102263;27;45329;-82
2023/02/01 09:06:00;;;;;;;;;12.33;9.33;;;;;11.41;100.00;102350.69;5104785;27;45340;-82
2023/02/01 09:08:26;;;;;;;;;7.67;6.00;;;;;11.53;100.00;102342.56;5085042;27;45352;-86
2023/02/01 09:10:51;;;;;;;;;10.33;10.33;;;;;11.63;100.00;102351.38;5088267;27;45369;-82
2023/02/01 09:13:16;;;;;;;;;13.00;11.00;;;;;11.68;100.00;102356.28;5100648;27;45333;-82
2023/02/01 09:15:42;;;;;;;;;8.67;6.67;;;;;11.69;100.00;102347.31;5098674;27;47479;-81
2023/02/01 09:18:07;;;;;;;;;8.33;7.00;;;;;11.76;100.00;102363.56;5091165;27;45337;-81
2023/02/01 09:20:32;;;;;;;;;4.00;4.00;;;;;11.79;100.00;102365.94;5103947;27;45408;-79
2023/02/01 09:22:57;;;;;;;;;12.67;10.00;;;;;11.86;100.00;102372.38;5102717;27;45501;-81
2023/02/01 09:25:23;;;;;;;;;10.33;8.67;;;;;11.94;100.00;102383.16;5110277;27;45529;-81
2023/02/01 09:27:48;;;;;;;;;9.00;7.00;;;;;11.93;100.00;102386.81;5103151;27;45824;-82
2023/02/01 09:30:14;;;;;;;;;6.33;5.67;;;;;11.94;99.49;102396.47;5100378;27;45341;-82
2023/02/01 09:32:39;;;;;;;;;10.00;6.33;;;;;11.97;100.00;102398.84;5082583;27;45414;-83
2023/02/01 09:35:05;;;;;;;;;7.00;7.00;;;;;11.98;99.73;102405.03;5099599;27;46725;-85
2023/02/01 09:37:30;;;;;;;;;10.33;9.00;;;;;11.92;99.93;102401.13;5100326;27;45535;-83
2023/02/01 09:39:55;;;;;;;;;10.00;7.33;;;;;12.02;99.31;102414.44;5098831;27;45370;-82
2023/02/01 09:42:30;;;;;;;;;10.33;8.67;;;;;12.07;98.93;102422.03;5084058;27;46263;-81
2023/02/01 09:45:32;;;;;;;;;7.33;6.67;;;;;12.05;99.30;102431.94;5103966;27;45431;-81
2023/02/01 09:48:08;;;;;;;;;11.33;8.00;;;;;11.98;98.28;102431.69;5096648;27;45362;-81
2023/02/01 09:50:38;;;;;;;;;6.67;6.67;;;;;11.97;98.41;102432.66;5096071;27;45459;-81
2023/02/01 09:53:18;;;;;;;;;7.50;6.00;;;;;11.99;98.50;102439.53;5101382;27;45527;-81
2023/02/01 09:55:54;;;;;;;;;9.67;7.33;;;;;12.04;98.57;102432.94;5101507;27;45372;-81
2023/02/01 09:58:30;;;;;;;;;7.00;7.00;;;;;12.08;97.60;102439.69;5102519;27;45750;-81
2023/02/01 10:00:58;;;;;;;;;7.00;6.00;;;;;12.14;98.26;102436.47;5096135;27;45527;-81
2023/02/01 10:03:28;;;;;;;;;8.33;6.67;;;;;12.17;97.47;102438.00;5090006;27;45703;-82
2023/02/01 10:05:56;;;;;;;;;6.67;6.00;;;;;12.18;97.02;102439.69;5108885;27;47397;-81
2023/02/01 10:08:31;;;;;;;;;7.33;6.67;;;;;12.22;96.57;102439.22;5101916;27;46110;-81
2023/02/01 10:11:24;;;;;;;;;6.00;4.00;;;;;12.21;94.35;102431.41;5102950;27;45338;-80
2023/02/01 10:14:14;;;;;;;;;13.00;8.33;;;;;12.28;95.23;102443.19;5097491;27;45543;-81
2023/02/01 10:16:57;;;;;;;;;10.33;9.00;;;;;12.37;95.57;102457.47;5098574;27;46605;-81
2023/02/01 10:19:42;;;;;;;;;7.00;6.00;;;;;12.30;94.74;102438.53;5099673;27;45341;-81
2023/02/01 10:22:26;;;;;;;;;5.67;5.33;;;;;12.45;94.17;102451.41;5099763;27;45463;-81
2023/02/01 10:25:05;;;;;;;;;6.67;6.67;;;;;12.48;93.06;102449.28;5097123;27;46602;-82
2023/02/01 10:27:39;;;;;;;;;7.67;7.00;;;;;12.54;92.64;102442.53;5097939;27;45550;-81
2023/02/01 10:30:19;;;;;;;;;12.00;8.00;;;;;12.54;91.85;102436.38;5085494;27;45646;-80
2023/02/01 10:32:44;;;;;;;;;7.33;7.33;;;;;12.59;91.54;102434.09;5098015;27;45348;-80
2023/02/01 10:35:15;;;;;;;;;11.33;10.00;;;;;12.69;91.63;102437.56;5098126;27;47308;-81
2023/02/01 10:37:44;;;;;;;;;10.00;7.00;;;;;12.71;91.12;102435.59;5099449;27;45418;-81
2023/02/01 10:40:26;;;;;;;;;8.00;6.00;;;;;12.72;90.37;102429.25;5099515;27;45309;-81
2023/02/01 10:42:57;;;;;;;;;7.33;5.67;;;;;12.80;90.54;102427.69;5099365;27;45380;-80
2023/02/01 10:45:27;;;;;;;;;5.67;4.33;;;;;12.81;89.90;102406.19;5085281;27;45448;-80
2023/02/01 10:47:54;;;;;;;;;9.00;9.00;;;;;12.94;90.32;102421.88;5098857;27;46320;-79
2023/02/01 10:50:40;;;;;;;;;9.00;8.67;;;;;13.00;88.56;102421.25;5081370;27;45374;-80
2023/02/01 10:53:31;;;;;;;;;7.00;7.00;;;;;12.96;89.67;102395.84;5094395;27;45474;-79
2023/02/01 10:55:56;;;;;;;;;6.33;6.33;;;;;12.90;88.44;102406.31;5096953;27;46376;-79
2023/02/01 10:58:33;;;;;;;;;8.00;6.00;;;;;12.86;89.42;102408.41;5089987;27;45481;-79
2023/02/01 11:01:06;;;;;;;;;11.33;10.33;;;;;12.78;88.78;102395.81;5096898;27;45419;-79
2023/02/01 11:03:56;;;;;;;;;8.33;7.00;;;;;12.93;87.80;102401.50;5090365;27;45413;-80
2023/02/01 11:06:21;;;;;;;;;5.00;5.00;;;;;12.98;88.66;102409.06;5098477;27;45400;-80
2023/02/01 11:08:56;;;;;;;;;9.33;9.33;;;;;13.31;86.47;102397.88;5099391;27;46265;-80
2023/02/01 11:11:23;;;;;;;;;10.00;10.00;;;;;13.23;87.54;102390.66;5099322;27;45348;-80
2023/02/01 11:13:56;;;;;;;;;9.00;7.00;;;;;13.20;86.23;102399.78;5098763;27;45537;-80
2023/02/01 11:16:29;;;;;;;;;13.00;12.33;;;;;13.63;86.04;102392.06;5096724;27;46320;-79
2023/02/01 11:18:55;;;;;;;;;10.33;8.00;;;;;13.50;84.15;102403.09;5102500;27;46265;-78
2023/02/01 11:21:21;;;;;;;;;6.33;6.33;;;;;13.49;82.74;102398.75;5100225;27;45467;-79
2023/02/01 11:23:47;;;;;;;;;8.33;7.00;;;;;13.56;82.87;102408.84;5101770;27;45551;-79
2023/02/01 11:26:23;;;;;;;;;8.00;8.00;;;;;13.59;82.60;102397.84;5101315;27;46795;-79
2023/02/01 11:29:21;;;;;;;;;5.67;5.00;;;;;13.54;82.33;102381.44;5102710;27;46105;-79
2023/02/01 11:31:49;;;;;;;;;7.67;7.67;;;;;13.52;80.39;102388.78;5093921;27;45572;-80
2023/02/01 11:34:20;;;;;;;;;6.00;5.00;;;;;13.63;81.08;102396.53;5098056;27;45435;-79
2023/02/01 11:36:48;;;;;;;;;12.67;7.67;;;;;13.65;82.61;102388.38;5095620;27;46552;-80
2023/02/01 11:39:32;;;;;;;;;9.00;7.00;;;;;13.73;83.03;102378.59;5101206;27;47460;-79
2023/02/01 11:42:00;;;;;;;;;9.67;6.33;;;;;13.83;83.08;102389.19;5102672;27;45353;-80
2023/02/01 11:44:38;;;;;;;;;7.67;7.33;;;;;13.99;83.22;102387.63;5103528;27;45331;-81
2023/02/01 11:47:22;;;;;;;;;9.33;8.00;;;;;14.20;81.59;102389.09;5100667;27;46279;-80
2023/02/01 11:49:56;;;;;;;;;13.33;9.67;;;;;14.26;80.87;102386.63;5102534;27;46170;-79
2023/02/01 11:53:04;;;;;;;;;15.00;9.67;;;;;14.41;80.62;102385.19;5102700;27;45394;-82